sensor_id;sensor_type;location;lat;lon;timestamp;P1;durP1;ratioP1;P2;durP2;ratioP2
52918;SDS011;38793;52.690;6.812;2023-12-22T00:00:40;21.20;;;4.27;;
52918;SDS011;38793;52.690;6.812;2023-12-22T00:03:06;22.40;;;4.13;;
52918;SDS011;38793;52.690;6.812;2023-12-22T00:05:31;23.57;;;5.23;;
52918;SDS011;38793;52.690;6.812;2023-12-22T00:07:57;22.73;;;4.63;;
52918;SDS011;38793;52.690;6.812;2023-12-22T00:10:22;26.50;;;3.53;;
52918;SDS011;38793;52.690;6.812;2023-12-22T00:12:48;26.70;;;4.77;;
52918;SDS011;38793;52.690;6.812;2023-12-22T00:15:13;24.67;;;4.47;;
52918;SDS011;38793;52.690;6.812;2023-12-22T00:17:39;24.70;;;4.70;;
52918;SDS011;38793;52.690;6.812;2023-12-22T00:20:05;27.87;;;6.00;;
52918;SDS011;38793;52.690;6.812;2023-12-22T00:22:31;25.15;;;5.93;;
52918;SDS011;38793;52.690;6.812;2023-12-22T00:24:56;18.77;;;3.90;;
52918;SDS011;38793;52.690;6.812;2023-12-22T00:27:22;28.33;;;5.17;;
52918;SDS011;38793;52.690;6.812;2023-12-22T00:29:47;27.40;;;5.40;;
52918;SDS011;38793;52.690;6.812;2023-12-22T00:32:13;18.90;;;3.77;;
52918;SDS011;38793;52.690;6.812;2023-12-22T00:34:39;25.80;;;5.33;;
52918;SDS011;38793;52.690;6.812;2023-12-22T00:37:04;28.47;;;4.53;;
52918;SDS011;38793;52.690;6.812;2023-12-22T00:39:30;33.30;;;4.97;;
52918;SDS011;38793;52.690;6.812;2023-12-22T00:41:56;20.83;;;4.88;;
52918;SDS011;38793;52.690;6.812;2023-12-22T00:44:22;28.25;;;5.07;;
52918;SDS011;38793;52.690;6.812;2023-12-22T00:46:48;35.30;;;5.55;;
52918;SDS011;38793;52.690;6.812;2023-12-22T00:49:14;20.97;;;4.10;;
52918;SDS011;38793;52.690;6.812;2023-12-22T00:51:39;33.50;;;6.70;;
52918;SDS011;38793;52.690;6.812;2023-12-22T00:54:05;26.97;;;5.80;;
52918;SDS011;38793;52.690;6.812;2023-12-22T00:56:30;28.93;;;4.63;;
52918;SDS011;38793;52.690;6.812;2023-12-22T00:58:56;23.77;;;3.90;;
52918;SDS011;38793;52.690;6.812;2023-12-22T01:01:22;29.67;;;3.77;;
52918;SDS011;38793;52.690;6.812;2023-12-22T01:03:47;23.37;;;3.37;;
52918;SDS011;38793;52.690;6.812;2023-12-22T01:06:13;16.40;;;2.90;;
52918;SDS011;38793;52.690;6.812;2023-12-22T01:08:39;19.10;;;3.40;;
52918;SDS011;38793;52.690;6.812;2023-12-22T01:11:05;21.53;;;3.90;;
52918;SDS011;38793;52.690;6.812;2023-12-22T01:13:31;30.30;;;4.70;;
52918;SDS011;38793;52.690;6.812;2023-12-22T01:15:57;25.73;;;5.22;;
52918;SDS011;38793;52.690;6.812;2023-12-22T01:18:22;26.90;;;4.27;;
52918;SDS011;38793;52.690;6.812;2023-12-22T01:20:50;27.40;;;5.18;;
52918;SDS011;38793;52.690;6.812;2023-12-22T01:23:15;34.33;;;5.00;;
52918;SDS011;38793;52.690;6.812;2023-12-22T01:25:41;23.53;;;4.53;;
52918;SDS011;38793;52.690;6.812;2023-12-22T01:28:07;33.42;;;4.82;;
52918;SDS011;38793;52.690;6.812;2023-12-22T01:30:32;24.50;;;5.03;;
52918;SDS011;38793;52.690;6.812;2023-12-22T01:32:58;18.77;;;2.87;;
52918;SDS011;38793;52.690;6.812;2023-12-22T01:35:23;29.93;;;4.13;;
52918;SDS011;38793;52.690;6.812;2023-12-22T01:37:49;35.17;;;4.50;;
52918;SDS011;38793;52.690;6.812;2023-12-22T01:40:16;28.83;;;5.22;;
52918;SDS011;38793;52.690;6.812;2023-12-22T01:42:41;24.53;;;4.13;;
52918;SDS011;38793;52.690;6.812;2023-12-22T01:45:07;26.20;;;3.70;;
52918;SDS011;38793;52.690;6.812;2023-12-22T01:47:33;32.08;;;3.83;;
52918;SDS011;38793;52.690;6.812;2023-12-22T01:50:00;20.90;;;3.80;;
52918;SDS011;38793;52.690;6.812;2023-12-22T01:52:26;24.15;;;3.38;;
52918;SDS011;38793;52.690;6.812;2023-12-22T01:54:52;26.90;;;4.22;;
52918;SDS011;38793;52.690;6.812;2023-12-22T01:57:20;24.25;;;4.68;;
52918;SDS011;38793;52.690;6.812;2023-12-22T01:59:46;25.83;;;3.55;;
52918;SDS011;38793;52.690;6.812;2023-12-22T02:02:13;24.75;;;4.50;;
52918;SDS011;38793;52.690;6.812;2023-12-22T02:04:39;26.67;;;4.50;;
52918;SDS011;38793;52.690;6.812;2023-12-22T02:09:33;23.55;;;3.85;;
52918;SDS011;38793;52.690;6.812;2023-12-22T02:11:59;12.97;;;2.27;;
52918;SDS011;38793;52.690;6.812;2023-12-22T02:14:24;18.70;;;3.97;;
52918;SDS011;38793;52.690;6.812;2023-12-22T02:17:36;23.10;;;4.53;;
52918;SDS011;38793;52.690;6.812;2023-12-22T02:19:47;26.50;;;3.45;;
52918;SDS011;38793;52.690;6.812;2023-12-22T02:22:13;25.30;;;4.38;;
52918;SDS011;38793;52.690;6.812;2023-12-22T02:24:39;30.63;;;5.67;;
52918;SDS011;38793;52.690;6.812;2023-12-22T02:27:06;25.05;;;3.10;;
52918;SDS011;38793;52.690;6.812;2023-12-22T02:29:43;19.77;;;3.63;;
52918;SDS011;38793;52.690;6.812;2023-12-22T02:32:30;27.13;;;4.20;;
52918;SDS011;38793;52.690;6.812;2023-12-22T02:34:59;28.58;;;5.30;;
52918;SDS011;38793;52.690;6.812;2023-12-22T02:37:34;34.25;;;5.25;;
52918;SDS011;38793;52.690;6.812;2023-12-22T02:40:00;19.60;;;3.03;;
52918;SDS011;38793;52.690;6.812;2023-12-22T02:42:28;21.48;;;3.83;;
52918;SDS011;38793;52.690;6.812;2023-12-22T02:44:58;17.75;;;3.15;;
52918;SDS011;38793;52.690;6.812;2023-12-22T02:47:24;18.95;;;3.25;;
52918;SDS011;38793;52.690;6.812;2023-12-22T02:49:52;21.85;;;3.30;;
52918;SDS011;38793;52.690;6.812;2023-12-22T02:52:18;19.48;;;3.03;;
52918;SDS011;38793;52.690;6.812;2023-12-22T02:54:44;13.07;;;2.20;;
52918;SDS011;38793;52.690;6.812;2023-12-22T02:57:12;16.98;;;1.58;;
52918;SDS011;38793;52.690;6.812;2023-12-22T02:59:38;9.13;;;1.40;;
52918;SDS011;38793;52.690;6.812;2023-12-22T03:02:04;10.18;;;1.45;;
52918;SDS011;38793;52.690;6.812;2023-12-22T03:04:29;16.73;;;2.17;;
52918;SDS011;38793;52.690;6.812;2023-12-22T03:06:55;21.93;;;2.83;;
52918;SDS011;38793;52.690;6.812;2023-12-22T03:09:21;17.03;;;2.23;;
52918;SDS011;38793;52.690;6.812;2023-12-22T03:11:47;16.63;;;3.20;;
52918;SDS011;38793;52.690;6.812;2023-12-22T03:14:13;10.40;;;1.92;;
52918;SDS011;38793;52.690;6.812;2023-12-22T03:16:39;13.07;;;1.87;;
52918;SDS011;38793;52.690;6.812;2023-12-22T03:19:05;14.27;;;1.73;;
52918;SDS011;38793;52.690;6.812;2023-12-22T03:21:32;13.25;;;1.92;;
52918;SDS011;38793;52.690;6.812;2023-12-22T03:23:57;7.87;;;1.93;;
52918;SDS011;38793;52.690;6.812;2023-12-22T03:26:23;14.97;;;2.10;;
52918;SDS011;38793;52.690;6.812;2023-12-22T03:28:51;18.45;;;2.58;;
52918;SDS011;38793;52.690;6.812;2023-12-22T03:31:16;14.63;;;1.63;;
52918;SDS011;38793;52.690;6.812;2023-12-22T03:33:42;12.40;;;2.07;;
52918;SDS011;38793;52.690;6.812;2023-12-22T03:36:07;12.87;;;1.77;;
52918;SDS011;38793;52.690;6.812;2023-12-22T03:38:33;14.27;;;1.93;;
52918;SDS011;38793;52.690;6.812;2023-12-22T03:40:58;12.53;;;1.20;;
52918;SDS011;38793;52.690;6.812;2023-12-22T03:43:24;12.40;;;1.80;;
52918;SDS011;38793;52.690;6.812;2023-12-22T03:45:50;7.37;;;0.90;;
52918;SDS011;38793;52.690;6.812;2023-12-22T03:48:15;10.87;;;0.83;;
52918;SDS011;38793;52.690;6.812;2023-12-22T03:50:41;5.37;;;0.57;;
52918;SDS011;38793;52.690;6.812;2023-12-22T03:53:07;6.78;;;1.25;;
52918;SDS011;38793;52.690;6.812;2023-12-22T03:55:32;7.00;;;0.70;;
52918;SDS011;38793;52.690;6.812;2023-12-22T03:57:58;7.63;;;1.27;;
52918;SDS011;38793;52.690;6.812;2023-12-22T04:00:23;6.70;;;1.23;;
52918;SDS011;38793;52.690;6.812;2023-12-22T04:02:49;15.13;;;1.13;;
52918;SDS011;38793;52.690;6.812;2023-12-22T04:05:15;11.27;;;0.77;;
52918;SDS011;38793;52.690;6.812;2023-12-22T04:07:40;7.80;;;0.70;;
52918;SDS011;38793;52.690;6.812;2023-12-22T04:10:06;13.77;;;1.20;;
52918;SDS011;38793;52.690;6.812;2023-12-22T04:12:32;10.27;;;1.23;;
52918;SDS011;38793;52.690;6.812;2023-12-22T04:14:57;11.77;;;0.93;;
52918;SDS011;38793;52.690;6.812;2023-12-22T04:17:23;15.67;;;1.30;;
52918;SDS011;38793;52.690;6.812;2023-12-22T04:19:48;5.20;;;0.93;;
52918;SDS011;38793;52.690;6.812;2023-12-22T04:22:14;7.33;;;1.03;;
52918;SDS011;38793;52.690;6.812;2023-12-22T04:24:40;9.97;;;1.60;;
52918;SDS011;38793;52.690;6.812;2023-12-22T04:27:05;18.47;;;2.10;;
52918;SDS011;38793;52.690;6.812;2023-12-22T04:29:31;7.67;;;1.07;;
52918;SDS011;38793;52.690;6.812;2023-12-22T04:31:57;14.07;;;1.70;;
52918;SDS011;38793;52.690;6.812;2023-12-22T04:34:22;18.23;;;1.33;;
52918;SDS011;38793;52.690;6.812;2023-12-22T04:36:48;13.20;;;1.67;;
52918;SDS011;38793;52.690;6.812;2023-12-22T04:39:13;19.03;;;2.53;;
52918;SDS011;38793;52.690;6.812;2023-12-22T04:41:39;15.57;;;2.87;;
52918;SDS011;38793;52.690;6.812;2023-12-22T04:44:05;18.67;;;2.60;;
52918;SDS011;38793;52.690;6.812;2023-12-22T04:46:30;24.07;;;2.03;;
52918;SDS011;38793;52.690;6.812;2023-12-22T04:48:56;15.70;;;2.53;;
52918;SDS011;38793;52.690;6.812;2023-12-22T04:51:21;20.27;;;2.70;;
52918;SDS011;38793;52.690;6.812;2023-12-22T04:53:47;26.60;;;2.60;;
52918;SDS011;38793;52.690;6.812;2023-12-22T04:56:13;19.93;;;2.20;;
52918;SDS011;38793;52.690;6.812;2023-12-22T04:58:38;16.70;;;4.00;;
52918;SDS011;38793;52.690;6.812;2023-12-22T05:01:04;18.23;;;3.13;;
52918;SDS011;38793;52.690;6.812;2023-12-22T05:03:29;20.33;;;2.27;;
52918;SDS011;38793;52.690;6.812;2023-12-22T05:05:55;25.90;;;3.60;;
52918;SDS011;38793;52.690;6.812;2023-12-22T05:08:21;25.33;;;4.97;;
52918;SDS011;38793;52.690;6.812;2023-12-22T05:10:46;17.97;;;3.30;;
52918;SDS011;38793;52.690;6.812;2023-12-22T05:13:12;12.73;;;2.60;;
52918;SDS011;38793;52.690;6.812;2023-12-22T05:15:37;19.33;;;3.73;;
52918;SDS011;38793;52.690;6.812;2023-12-22T05:18:03;12.37;;;2.43;;
52918;SDS011;38793;52.690;6.812;2023-12-22T05:20:29;26.23;;;2.83;;
52918;SDS011;38793;52.690;6.812;2023-12-22T05:22:54;16.50;;;2.27;;
52918;SDS011;38793;52.690;6.812;2023-12-22T05:25:21;16.48;;;3.08;;
52918;SDS011;38793;52.690;6.812;2023-12-22T05:27:47;22.17;;;3.00;;
52918;SDS011;38793;52.690;6.812;2023-12-22T05:30:13;14.67;;;3.77;;
52918;SDS011;38793;52.690;6.812;2023-12-22T05:32:38;19.30;;;3.38;;
52918;SDS011;38793;52.690;6.812;2023-12-22T05:35:04;18.20;;;2.50;;
52918;SDS011;38793;52.690;6.812;2023-12-22T05:37:30;22.40;;;2.53;;
52918;SDS011;38793;52.690;6.812;2023-12-22T05:39:55;18.30;;;3.13;;
52918;SDS011;38793;52.690;6.812;2023-12-22T05:42:21;25.47;;;3.80;;
52918;SDS011;38793;52.690;6.812;2023-12-22T05:44:47;16.80;;;2.33;;
52918;SDS011;38793;52.690;6.812;2023-12-22T05:47:15;16.80;;;2.33;;
52918;SDS011;38793;52.690;6.812;2023-12-22T05:49:44;23.83;;;3.20;;
52918;SDS011;38793;52.690;6.812;2023-12-22T05:52:09;21.47;;;3.03;;
52918;SDS011;38793;52.690;6.812;2023-12-22T05:54:37;18.48;;;2.88;;
52918;SDS011;38793;52.690;6.812;2023-12-22T05:59:30;19.98;;;2.35;;
52918;SDS011;38793;52.690;6.812;2023-12-22T06:01:57;15.32;;;2.88;;
52918;SDS011;38793;52.690;6.812;2023-12-22T06:06:49;16.10;;;2.80;;
52918;SDS011;38793;52.690;6.812;2023-12-22T06:09:15;18.80;;;3.00;;
52918;SDS011;38793;52.690;6.812;2023-12-22T06:11:42;24.30;;;2.97;;
52918;SDS011;38793;52.690;6.812;2023-12-22T06:14:07;17.57;;;2.73;;
52918;SDS011;38793;52.690;6.812;2023-12-22T06:16:33;20.77;;;3.60;;
52918;SDS011;38793;52.690;6.812;2023-12-22T06:18:59;34.00;;;5.57;;
52918;SDS011;38793;52.690;6.812;2023-12-22T06:21:24;24.53;;;2.87;;
52918;SDS011;38793;52.690;6.812;2023-12-22T06:23:50;25.63;;;3.87;;
52918;SDS011;38793;52.690;6.812;2023-12-22T06:26:15;21.33;;;3.00;;
52918;SDS011;38793;52.690;6.812;2023-12-22T06:28:41;29.77;;;4.67;;
52918;SDS011;38793;52.690;6.812;2023-12-22T06:31:07;19.70;;;3.00;;
52918;SDS011;38793;52.690;6.812;2023-12-22T06:33:34;12.27;;;2.30;;
52918;SDS011;38793;52.690;6.812;2023-12-22T06:35:59;19.10;;;3.30;;
52918;SDS011;38793;52.690;6.812;2023-12-22T06:38:25;20.23;;;3.67;;
52918;SDS011;38793;52.690;6.812;2023-12-22T06:40:50;21.07;;;3.17;;
52918;SDS011;38793;52.690;6.812;2023-12-22T06:43:16;23.50;;;3.27;;
52918;SDS011;38793;52.690;6.812;2023-12-22T06:45:41;23.93;;;3.47;;
52918;SDS011;38793;52.690;6.812;2023-12-22T06:48:07;20.30;;;4.43;;
52918;SDS011;38793;52.690;6.812;2023-12-22T06:50:34;15.07;;;2.63;;
52918;SDS011;38793;52.690;6.812;2023-12-22T06:53:02;21.33;;;3.35;;
52918;SDS011;38793;52.690;6.812;2023-12-22T06:55:27;15.23;;;2.15;;
52918;SDS011;38793;52.690;6.812;2023-12-22T06:57:54;22.40;;;2.67;;
52918;SDS011;38793;52.690;6.812;2023-12-22T07:00:20;17.02;;;2.30;;
52918;SDS011;38793;52.690;6.812;2023-12-22T07:02:46;15.87;;;3.33;;
52918;SDS011;38793;52.690;6.812;2023-12-22T07:05:32;13.73;;;1.70;;
52918;SDS011;38793;52.690;6.812;2023-12-22T07:07:58;18.73;;;2.92;;
52918;SDS011;38793;52.690;6.812;2023-12-22T07:10:24;12.37;;;1.90;;
52918;SDS011;38793;52.690;6.812;2023-12-22T07:12:49;13.10;;;2.97;;
52918;SDS011;38793;52.690;6.812;2023-12-22T07:15:15;17.23;;;2.37;;
52918;SDS011;38793;52.690;6.812;2023-12-22T07:17:40;18.33;;;2.87;;
52918;SDS011;38793;52.690;6.812;2023-12-22T07:22:34;19.50;;;3.43;;
52918;SDS011;38793;52.690;6.812;2023-12-22T07:24:59;16.13;;;2.47;;
52918;SDS011;38793;52.690;6.812;2023-12-22T07:27:25;16.77;;;3.33;;
52918;SDS011;38793;52.690;6.812;2023-12-22T07:29:50;18.70;;;2.50;;
52918;SDS011;38793;52.690;6.812;2023-12-22T07:32:16;23.03;;;4.50;;
52918;SDS011;38793;52.690;6.812;2023-12-22T07:34:42;22.03;;;3.33;;
52918;SDS011;38793;52.690;6.812;2023-12-22T07:37:07;23.90;;;3.17;;
52918;SDS011;38793;52.690;6.812;2023-12-22T07:39:33;20.20;;;3.03;;
52918;SDS011;38793;52.690;6.812;2023-12-22T07:41:59;29.92;;;4.63;;
52918;SDS011;38793;52.690;6.812;2023-12-22T07:44:24;24.67;;;2.63;;
52918;SDS011;38793;52.690;6.812;2023-12-22T07:46:56;28.07;;;4.07;;
52918;SDS011;38793;52.690;6.812;2023-12-22T07:49:23;21.60;;;3.25;;
52918;SDS011;38793;52.690;6.812;2023-12-22T07:51:49;33.77;;;5.43;;
52918;SDS011;38793;52.690;6.812;2023-12-22T07:54:16;21.83;;;3.97;;
52918;SDS011;38793;52.690;6.812;2023-12-22T07:56:42;20.20;;;3.72;;
52918;SDS011;38793;52.690;6.812;2023-12-22T07:59:08;18.43;;;3.03;;
52918;SDS011;38793;52.690;6.812;2023-12-22T08:01:33;18.80;;;2.77;;
52918;SDS011;38793;52.690;6.812;2023-12-22T08:03:59;23.33;;;3.23;;
52918;SDS011;38793;52.690;6.812;2023-12-22T08:06:24;20.83;;;3.80;;
52918;SDS011;38793;52.690;6.812;2023-12-22T08:08:50;20.43;;;2.80;;
52918;SDS011;38793;52.690;6.812;2023-12-22T08:11:16;21.07;;;2.50;;
52918;SDS011;38793;52.690;6.812;2023-12-22T08:13:41;18.17;;;3.07;;
52918;SDS011;38793;52.690;6.812;2023-12-22T08:16:07;11.40;;;2.70;;
52918;SDS011;38793;52.690;6.812;2023-12-22T08:18:32;24.63;;;3.13;;
52918;SDS011;38793;52.690;6.812;2023-12-22T08:20:58;21.60;;;3.03;;
52918;SDS011;38793;52.690;6.812;2023-12-22T08:23:24;26.60;;;3.07;;
52918;SDS011;38793;52.690;6.812;2023-12-22T08:25:49;19.57;;;3.40;;
52918;SDS011;38793;52.690;6.812;2023-12-22T08:28:15;28.60;;;3.00;;
52918;SDS011;38793;52.690;6.812;2023-12-22T08:30:40;14.43;;;2.60;;
52918;SDS011;38793;52.690;6.812;2023-12-22T08:33:06;13.53;;;2.97;;
52918;SDS011;38793;52.690;6.812;2023-12-22T08:35:31;17.40;;;3.37;;
52918;SDS011;38793;52.690;6.812;2023-12-22T08:37:57;19.47;;;3.10;;
52918;SDS011;38793;52.690;6.812;2023-12-22T08:40:23;18.70;;;3.10;;
52918;SDS011;38793;52.690;6.812;2023-12-22T08:42:51;15.35;;;3.15;;
52918;SDS011;38793;52.690;6.812;2023-12-22T08:45:19;19.73;;;2.47;;
52918;SDS011;38793;52.690;6.812;2023-12-22T08:47:46;20.08;;;2.70;;
52918;SDS011;38793;52.690;6.812;2023-12-22T08:50:11;16.97;;;2.60;;
52918;SDS011;38793;52.690;6.812;2023-12-22T08:52:38;17.15;;;2.72;;
52918;SDS011;38793;52.690;6.812;2023-12-22T08:55:04;12.93;;;2.00;;
52918;SDS011;38793;52.690;6.812;2023-12-22T08:59:56;16.73;;;2.42;;
52918;SDS011;38793;52.690;6.812;2023-12-22T09:02:22;10.88;;;1.83;;
52918;SDS011;38793;52.690;6.812;2023-12-22T09:04:48;9.73;;;1.55;;
52918;SDS011;38793;52.690;6.812;2023-12-22T09:07:13;11.60;;;1.50;;
52918;SDS011;38793;52.690;6.812;2023-12-22T09:09:39;15.57;;;1.73;;
52918;SDS011;38793;52.690;6.812;2023-12-22T09:12:05;12.55;;;1.35;;
52918;SDS011;38793;52.690;6.812;2023-12-22T09:14:31;8.23;;;0.95;;
52918;SDS011;38793;52.690;6.812;2023-12-22T09:16:56;9.13;;;0.75;;
52918;SDS011;38793;52.690;6.812;2023-12-22T09:19:22;6.97;;;0.87;;
52918;SDS011;38793;52.690;6.812;2023-12-22T09:21:48;12.00;;;1.27;;
52918;SDS011;38793;52.690;6.812;2023-12-22T09:24:13;11.80;;;1.23;;
52918;SDS011;38793;52.690;6.812;2023-12-22T09:26:41;13.15;;;1.90;;
52918;SDS011;38793;52.690;6.812;2023-12-22T09:29:07;9.77;;;1.27;;
52918;SDS011;38793;52.690;6.812;2023-12-22T09:31:32;8.57;;;0.97;;
52918;SDS011;38793;52.690;6.812;2023-12-22T09:33:58;9.10;;;1.23;;
52918;SDS011;38793;52.690;6.812;2023-12-22T09:36:23;7.70;;;0.83;;
52918;SDS011;38793;52.690;6.812;2023-12-22T09:38:49;6.90;;;1.53;;
52918;SDS011;38793;52.690;6.812;2023-12-22T09:41:15;6.23;;;0.77;;
52918;SDS011;38793;52.690;6.812;2023-12-22T09:43:40;9.17;;;2.03;;
52918;SDS011;38793;52.690;6.812;2023-12-22T09:46:10;7.18;;;0.50;;
52918;SDS011;38793;52.690;6.812;2023-12-22T09:48:36;6.30;;;0.70;;
52918;SDS011;38793;52.690;6.812;2023-12-22T09:51:04;5.40;;;0.95;;
52918;SDS011;38793;52.690;6.812;2023-12-22T09:53:31;13.68;;;1.15;;
52918;SDS011;38793;52.690;6.812;2023-12-22T09:55:58;16.95;;;1.20;;
52918;SDS011;38793;52.690;6.812;2023-12-22T09:58:25;7.18;;;0.93;;
52918;SDS011;38793;52.690;6.812;2023-12-22T10:00:50;9.17;;;1.23;;
52918;SDS011;38793;52.690;6.812;2023-12-22T10:03:17;9.23;;;1.40;;
52918;SDS011;38793;52.690;6.812;2023-12-22T10:05:45;11.32;;;1.35;;
52918;SDS011;38793;52.690;6.812;2023-12-22T10:08:11;7.35;;;1.05;;
52918;SDS011;38793;52.690;6.812;2023-12-22T10:13:04;11.88;;;1.55;;
52918;SDS011;38793;52.690;6.812;2023-12-22T10:15:34;14.48;;;1.98;;
52918;SDS011;38793;52.690;6.812;2023-12-22T10:18:02;7.65;;;1.50;;
52918;SDS011;38793;52.690;6.812;2023-12-22T10:20:28;8.90;;;1.85;;
52918;SDS011;38793;52.690;6.812;2023-12-22T10:22:54;12.87;;;1.60;;
52918;SDS011;38793;52.690;6.812;2023-12-22T10:25:20;7.80;;;1.23;;
52918;SDS011;38793;52.690;6.812;2023-12-22T10:27:46;8.77;;;1.55;;
52918;SDS011;38793;52.690;6.812;2023-12-22T10:30:12;15.43;;;1.77;;
52918;SDS011;38793;52.690;6.812;2023-12-22T10:32:41;9.18;;;1.30;;
52918;SDS011;38793;52.690;6.812;2023-12-22T10:35:08;10.55;;;1.65;;
52918;SDS011;38793;52.690;6.812;2023-12-22T10:39:59;13.13;;;1.65;;
52918;SDS011;38793;52.690;6.812;2023-12-22T10:42:25;10.23;;;1.50;;
52918;SDS011;38793;52.690;6.812;2023-12-22T10:44:51;6.07;;;1.50;;
52918;SDS011;38793;52.690;6.812;2023-12-22T10:47:18;9.13;;;1.27;;
52918;SDS011;38793;52.690;6.812;2023-12-22T10:49:46;10.48;;;2.20;;
52918;SDS011;38793;52.690;6.812;2023-12-22T10:52:15;11.00;;;1.58;;
52918;SDS011;38793;52.690;6.812;2023-12-22T10:54:45;12.93;;;1.63;;
52918;SDS011;38793;52.690;6.812;2023-12-22T10:57:11;7.55;;;1.17;;
52918;SDS011;38793;52.690;6.812;2023-12-22T10:59:39;9.13;;;1.35;;
52918;SDS011;38793;52.690;6.812;2023-12-22T11:02:11;14.55;;;1.25;;
52918;SDS011;38793;52.690;6.812;2023-12-22T11:04:41;10.98;;;1.80;;
52918;SDS011;38793;52.690;6.812;2023-12-22T11:07:16;6.63;;;0.95;;
52918;SDS011;38793;52.690;6.812;2023-12-22T11:09:43;5.88;;;0.80;;
52918;SDS011;38793;52.690;6.812;2023-12-22T11:12:11;5.18;;;0.63;;
52918;SDS011;38793;52.690;6.812;2023-12-22T11:14:38;6.88;;;0.68;;
52918;SDS011;38793;52.690;6.812;2023-12-22T11:19:31;5.18;;;0.95;;
52918;SDS011;38793;52.690;6.812;2023-12-22T11:22:00;3.00;;;0.32;;
52918;SDS011;38793;52.690;6.812;2023-12-22T11:24:28;4.05;;;0.30;;
52918;SDS011;38793;52.690;6.812;2023-12-22T11:26:56;4.70;;;0.47;;
52918;SDS011;38793;52.690;6.812;2023-12-22T11:29:23;1.88;;;0.50;;
52918;SDS011;38793;52.690;6.812;2023-12-22T11:31:51;5.40;;;0.30;;
52918;SDS011;38793;52.690;6.812;2023-12-22T11:34:20;4.32;;;0.77;;
52918;SDS011;38793;52.690;6.812;2023-12-22T11:36:48;2.63;;;0.47;;
52918;SDS011;38793;52.690;6.812;2023-12-22T11:39:15;7.95;;;0.45;;
52918;SDS011;38793;52.690;6.812;2023-12-22T11:41:41;4.45;;;0.30;;
52918;SDS011;38793;52.690;6.812;2023-12-22T11:44:08;2.20;;;0.25;;
52918;SDS011;38793;52.690;6.812;2023-12-22T11:46:34;0.40;;;0.20;;
52918;SDS011;38793;52.690;6.812;2023-12-22T11:48:59;2.80;;;0.40;;
52918;SDS011;38793;52.690;6.812;2023-12-22T11:51:25;3.97;;;0.68;;
52918;SDS011;38793;52.690;6.812;2023-12-22T11:53:59;7.07;;;0.50;;
52918;SDS011;38793;52.690;6.812;2023-12-22T11:56:25;4.80;;;0.60;;
52918;SDS011;38793;52.690;6.812;2023-12-22T11:58:51;2.97;;;0.40;;
52918;SDS011;38793;52.690;6.812;2023-12-22T12:01:19;2.20;;;0.75;;
52918;SDS011;38793;52.690;6.812;2023-12-22T12:06:14;4.97;;;0.57;;
52918;SDS011;38793;52.690;6.812;2023-12-22T12:08:41;3.25;;;0.43;;
52918;SDS011;38793;52.690;6.812;2023-12-22T12:11:08;4.43;;;0.63;;
52918;SDS011;38793;52.690;6.812;2023-12-22T12:13:33;2.10;;;0.60;;
52918;SDS011;38793;52.690;6.812;2023-12-22T12:15:59;3.00;;;0.20;;
52918;SDS011;38793;52.690;6.812;2023-12-22T12:18:29;4.60;;;1.00;;
52918;SDS011;38793;52.690;6.812;2023-12-22T12:20:56;3.13;;;0.77;;
52918;SDS011;38793;52.690;6.812;2023-12-22T12:23:25;3.55;;;0.20;;
52918;SDS011;38793;52.690;6.812;2023-12-22T12:25:53;4.07;;;0.65;;
52918;SDS011;38793;52.690;6.812;2023-12-22T12:28:29;4.07;;;0.20;;
52918;SDS011;38793;52.690;6.812;2023-12-22T12:30:58;2.95;;;0.40;;
52918;SDS011;38793;52.690;6.812;2023-12-22T12:33:26;4.22;;;0.47;;
52918;SDS011;38793;52.690;6.812;2023-12-22T12:35:53;6.82;;;0.40;;
52918;SDS011;38793;52.690;6.812;2023-12-22T12:38:21;6.45;;;0.52;;
52918;SDS011;38793;52.690;6.812;2023-12-22T12:40:50;4.13;;;0.38;;
52918;SDS011;38793;52.690;6.812;2023-12-22T12:45:42;5.63;;;0.30;;
52918;SDS011;38793;52.690;6.812;2023-12-22T12:48:07;3.90;;;0.30;;
52918;SDS011;38793;52.690;6.812;2023-12-22T12:50:33;2.77;;;0.27;;
52918;SDS011;38793;52.690;6.812;2023-12-22T12:52:59;4.27;;;0.50;;
52918;SDS011;38793;52.690;6.812;2023-12-22T12:55:25;6.20;;;0.40;;
52918;SDS011;38793;52.690;6.812;2023-12-22T12:57:51;4.22;;;0.45;;
52918;SDS011;38793;52.690;6.812;2023-12-22T13:00:28;4.90;;;0.45;;
52918;SDS011;38793;52.690;6.812;2023-12-22T13:02:54;6.03;;;0.40;;
52918;SDS011;38793;52.690;6.812;2023-12-22T13:05:31;1.73;;;0.30;;
52918;SDS011;38793;52.690;6.812;2023-12-22T13:08:06;4.65;;;0.93;;
52918;SDS011;38793;52.690;6.812;2023-12-22T13:10:33;4.70;;;0.20;;
52918;SDS011;38793;52.690;6.812;2023-12-22T13:12:59;4.13;;;0.50;;
52918;SDS011;38793;52.690;6.812;2023-12-22T13:15:25;6.13;;;0.43;;
52918;SDS011;38793;52.690;6.812;2023-12-22T13:17:51;5.35;;;0.20;;
52918;SDS011;38793;52.690;6.812;2023-12-22T13:20:17;5.00;;;0.40;;
52918;SDS011;38793;52.690;6.812;2023-12-22T13:22:43;3.60;;;0.20;;
52918;SDS011;38793;52.690;6.812;2023-12-22T13:27:46;1.93;;;0.20;;
52918;SDS011;38793;52.690;6.812;2023-12-22T13:30:34;2.35;;;0.22;;
52918;SDS011;38793;52.690;6.812;2023-12-22T13:33:05;4.22;;;0.50;;
52918;SDS011;38793;52.690;6.812;2023-12-22T13:35:31;4.15;;;0.30;;
52918;SDS011;38793;52.690;6.812;2023-12-22T13:38:00;2.72;;;0.45;;
52918;SDS011;38793;52.690;6.812;2023-12-22T13:40:26;6.90;;;0.45;;
52918;SDS011;38793;52.690;6.812;2023-12-22T13:42:58;6.57;;;0.40;;
52918;SDS011;38793;52.690;6.812;2023-12-22T13:45:24;2.30;;;0.25;;
52918;SDS011;38793;52.690;6.812;2023-12-22T13:47:50;5.05;;;0.57;;
52918;SDS011;38793;52.690;6.812;2023-12-22T13:50:16;3.28;;;0.30;;
52918;SDS011;38793;52.690;6.812;2023-12-22T13:52:43;6.63;;;0.60;;
52918;SDS011;38793;52.690;6.812;2023-12-22T13:55:10;5.22;;;0.52;;
52918;SDS011;38793;52.690;6.812;2023-12-22T13:57:37;9.90;;;0.68;;
52918;SDS011;38793;52.690;6.812;2023-12-22T14:00:24;4.23;;;0.70;;
52918;SDS011;38793;52.690;6.812;2023-12-22T14:02:53;6.18;;;0.98;;
52918;SDS011;38793;52.690;6.812;2023-12-22T14:05:19;7.13;;;0.80;;
52918;SDS011;38793;52.690;6.812;2023-12-22T14:07:45;9.35;;;1.40;;
52918;SDS011;38793;52.690;6.812;2023-12-22T14:10:11;8.00;;;1.15;;
52918;SDS011;38793;52.690;6.812;2023-12-22T14:12:37;7.80;;;1.40;;
52918;SDS011;38793;52.690;6.812;2023-12-22T14:17:32;4.53;;;0.40;;
52918;SDS011;38793;52.690;6.812;2023-12-22T14:19:58;3.30;;;1.10;;
52918;SDS011;38793;52.690;6.812;2023-12-22T14:22:24;6.70;;;1.10;;
52918;SDS011;38793;52.690;6.812;2023-12-22T14:24:50;8.90;;;0.60;;
52918;SDS011;38793;52.690;6.812;2023-12-22T14:27:15;11.85;;;1.33;;
52918;SDS011;38793;52.690;6.812;2023-12-22T14:29:43;7.40;;;1.52;;
52918;SDS011;38793;52.690;6.812;2023-12-22T14:32:09;10.80;;;1.33;;
52918;SDS011;38793;52.690;6.812;2023-12-22T14:34:37;8.50;;;1.27;;
52918;SDS011;38793;52.690;6.812;2023-12-22T14:37:03;10.88;;;1.30;;
52918;SDS011;38793;52.690;6.812;2023-12-22T14:39:28;9.85;;;0.90;;
52918;SDS011;38793;52.690;6.812;2023-12-22T14:41:55;2.00;;;0.45;;
52918;SDS011;38793;52.690;6.812;2023-12-22T14:44:21;3.97;;;0.33;;
52918;SDS011;38793;52.690;6.812;2023-12-22T14:46:46;3.60;;;0.50;;
52918;SDS011;38793;52.690;6.812;2023-12-22T14:49:12;3.53;;;0.50;;
52918;SDS011;38793;52.690;6.812;2023-12-22T14:51:38;2.90;;;0.63;;
52918;SDS011;38793;52.690;6.812;2023-12-22T14:54:04;5.60;;;0.45;;
52918;SDS011;38793;52.690;6.812;2023-12-22T14:58:56;2.47;;;0.20;;
52918;SDS011;38793;52.690;6.812;2023-12-22T15:01:21;1.60;;;0.33;;
52918;SDS011;38793;52.690;6.812;2023-12-22T15:03:47;4.77;;;0.20;;
52918;SDS011;38793;52.690;6.812;2023-12-22T15:06:12;5.77;;;0.20;;